Time;durP1;ratioP1;P1;durP2;ratioP2;P2;SDS_P1;SDS_P2;PMS_P1;PMS_P2;Temp;Humidity;BMP_temperature;BMP_pressure;BME280_temperature;BME280_humidity;BME280_pressure;Samples;Min_cycle;Max_cycle;Signal;HPM_P1;HPM_P2
2021/09/07 00:01:54;;;;;;;;;;;;;;;25.41;37.50;101766.25;4959748;29;788;-28
2021/09/07 00:04:19;;;;;;;;;;;;;;;23.75;41.62;101766.84;4959974;29;892;-28
2021/09/07 00:06:44;;;;;;;;;;;;;;;23.85;42.93;101762.38;4960291;29;785;-27
2021/09/07 00:09:10;;;;;;;;;;;;;;;24.98;38.50;101765.78;4960166;29;765;-27
2021/09/07 00:11:35;;;;;;;;;;;;;;;25.44;37.09;101770.53;4959924;29;1930;-29
2021/09/07 00:14:00;;;;;;;;;;;;;;;25.66;36.48;101766.63;4959651;29;930;-28
2021/09/07 00:16:26;;;;;;;;;;;;;;;25.87;36.08;101773.63;4959884;29;820;-27
2021/09/07 00:18:51;;;;;;;;;;;;;;;25.71;36.83;101766.19;4959373;29;1152;-27
2021/09/07 00:21:16;;;;;;;;;;;;;;;23.60;42.31;101760.97;4959999;29;1660;-27
2021/09/07 00:23:42;;;;;;;;;;;;;;;22.68;44.76;101761.50;4959745;29;796;-27
2021/09/07 00:26:07;;;;;;;;;;;;;;;24.29;40.43;101757.69;4958895;29;624;-28
2021/09/07 00:28:32;;;;;;;;;;;;;;;24.75;39.94;101754.44;4959552;29;961;-28
2021/09/07 00:30:58;;;;;;;;;;;;;;;23.24;42.94;101748.75;4958413;28;836;-28
2021/09/07 00:33:23;;;;;;;;;;;;;;;22.96;45.35;101751.13;4959613;29;1918;-27
2021/09/07 00:35:48;;;;;;;;;;;;;;;24.49;39.93;101752.34;4959174;29;840;-27
2021/09/07 00:38:14;;;;;;;;;;;;;;;25.12;38.26;101752.88;4959578;29;833;-27
2021/09/07 00:40:39;;;;;;;;;;;;;;;25.54;37.21;101746.25;4959160;29;776;-28
2021/09/07 00:43:04;;;;;;;;;;;;;;;25.60;36.98;101751.03;4959208;29;832;-26
2021/09/07 00:45:29;;;;;;;;;;;;;;;25.53;37.25;101737.28;4958884;29;962;-27
2021/09/07 00:47:56;;;;;;;;;;;;;;;23.66;41.96;101735.41;4959316;29;821;-28
2021/09/07 00:50:22;;;;;;;;;;;;;;;22.69;44.54;101740.91;4959404;29;820;-28
2021/09/07 00:52:47;;;;;;;;;;;;;;;23.36;43.91;101744.16;4958511;28;1952;-27
2021/09/07 00:55:15;;;;;;;;;;;;;;;24.72;39.42;101747.53;4957947;29;828;-28
2021/09/07 00:57:41;;;;;;;;;;;;;;;25.14;38.50;101750.91;4959554;29;836;-29
2021/09/07 01:00:06;;;;;;;;;;;;;;;25.42;37.75;101754.47;4954406;29;950;-27
2021/09/07 01:02:31;;;;;;;;;;;;;;;25.75;36.80;101750.56;4940048;29;785;-29
2021/09/07 01:04:57;;;;;;;;;;;;;;;25.55;37.03;101750.63;4952235;29;825;-28
2021/09/07 01:07:22;;;;;;;;;;;;;;;25.74;38.00;101756.97;4958732;29;840;-26
2021/09/07 01:09:47;;;;;;;;;;;;;;;24.30;40.33;101741.41;4958925;29;801;-28
2021/09/07 01:12:13;;;;;;;;;;;;;;;23.19;43.15;101742.91;4958945;28;1910;-27
2021/09/07 01:14:39;;;;;;;;;;;;;;;24.01;41.91;101744.84;4957991;29;1010;-29
2021/09/07 01:17:11;;;;;;;;;;;;;;;24.27;39.57;101744.38;4958378;28;1099;-28
2021/09/07 01:19:36;;;;;;;;;;;;;;;22.87;43.92;101749.22;4959487;28;789;-29
2021/09/07 01:22:01;;;;;;;;;;;;;;;23.88;42.46;101739.72;4958377;29;1578;-28
2021/09/07 01:24:27;;;;;;;;;;;;;;;24.85;39.35;101738.28;4958550;29;868;-29
2021/09/07 01:26:52;;;;;;;;;;;;;;;25.42;37.55;101738.31;4958963;29;820;-28
2021/09/07 01:29:18;;;;;;;;;;;;;;;25.32;38.29;101740.22;4957860;29;852;-29
2021/09/07 01:31:43;;;;;;;;;;;;;;;23.47;42.18;101740.56;4958191;29;1926;-29
2021/09/07 01:34:08;;;;;;;;;;;;;;;23.49;44.29;101743.09;4958750;29;780;-29
2021/09/07 01:36:34;;;;;;;;;;;;;;;24.93;39.14;101738.44;4958238;29;815;-29
2021/09/07 01:38:59;;;;;;;;;;;;;;;25.18;38.44;101737.00;4958264;29;773;-28
2021/09/07 01:41:25;;;;;;;;;;;;;;;25.66;36.76;101738.81;4958180;28;761;-27
2021/09/07 01:43:50;;;;;;;;;;;;;;;23.95;41.09;101735.53;4957882;29;1112;-28
2021/09/07 01:46:16;;;;;;;;;;;;;;;23.11;43.26;101732.00;4958059;29;773;-27
2021/09/07 01:48:41;;;;;;;;;;;;;;;23.63;43.24;101728.47;4958122;29;780;-28
2021/09/07 01:51:06;;;;;;;;;;;;;;;25.00;39.03;101736.03;4958634;29;808;-29
2021/09/07 01:53:32;;;;;;;;;;;;;;;25.34;37.70;101726.59;4958578;29;1903;-29
2021/09/07 01:55:57;;;;;;;;;;;;;;;25.35;37.95;101729.16;4957636;29;764;-26
2021/09/07 01:58:22;;;;;;;;;;;;;;;23.79;41.45;101730.66;4957569;28;966;-28
2021/09/07 02:00:48;;;;;;;;;;;;;;;22.83;44.10;101735.22;4957949;29;980;-28
2021/09/07 02:03:13;;;;;;;;;;;;;;;24.43;40.17;101727.69;4958213;29;768;-29
2021/09/07 02:05:38;;;;;;;;;;;;;;;24.83;39.16;101730.34;4958137;29;789;-27
2021/09/07 02:08:04;;;;;;;;;;;;;;;25.58;37.09;101738.69;4957457;29;853;-29
2021/09/07 02:10:29;;;;;;;;;;;;;;;24.93;36.80;101731.22;4957408;29;1424;-26
2021/09/07 02:12:54;;;;;;;;;;;;;;;23.28;42.71;101729.69;4957954;29;1963;-26
2021/09/07 02:15:20;;;;;;;;;;;;;;;24.05;41.63;101726.63;4957512;29;1001;-29
2021/09/07 02:17:45;;;;;;;;;;;;;;;25.00;39.36;101726.13;4957642;29;1238;-28
2021/09/07 02:20:12;;;;;;;;;;;;;;;25.52;37.59;101726.66;4957593;29;732;-27
2021/09/07 02:22:37;;;;;;;;;;;;;;;25.27;38.06;101729.88;4957979;29;1628;-27
2021/09/07 02:25:03;;;;;;;;;;;;;;;23.39;42.35;101729.59;4957673;29;797;-28
2021/09/07 02:27:28;;;;;;;;;;;;;;;23.65;43.40;101726.50;4940592;29;1290;-29
2021/09/07 02:29:53;;;;;;;;;;;;;;;25.01;38.42;101730.50;4957131;29;997;-28
2021/09/07 02:32:18;;;;;;;;;;;;;;;25.28;37.87;101731.56;4957540;29;1983;-29
2021/09/07 02:34:44;;;;;;;;;;;;;;;25.56;37.12;101733.44;4957673;29;833;-28
2021/09/07 02:37:10;;;;;;;;;;;;;;;23.84;41.50;101727.53;4957138;29;812;-28
2021/09/07 02:39:35;;;;;;;;;;;;;;;23.43;44.46;101722.16;4957503;29;808;-29
2021/09/07 02:42:01;;;;;;;;;;;;;;;24.91;38.97;101718.91;4957605;29;805;-27
2021/09/07 02:44:27;;;;;;;;;;;;;;;25.23;37.98;101716.84;4947628;29;840;-27
2021/09/07 02:46:52;;;;;;;;;;;;;;;25.56;38.05;101730.75;4954054;29;840;-27
2021/09/07 02:49:17;;;;;;;;;;;;;;;25.92;36.42;101725.47;4957220;29;793;-27
2021/09/07 02:51:43;;;;;;;;;;;;;;;25.69;36.92;101722.38;4957317;29;1906;-30
2021/09/07 02:54:09;;;;;;;;;;;;;;;23.97;41.05;101724.63;4959138;28;777;-27
2021/09/07 02:56:34;;;;;;;;;;;;;;;22.86;43.74;101718.84;4961532;29;757;-26
2021/09/07 02:58:59;;;;;;;;;;;;;;;24.32;40.33;101722.44;4960541;29;799;-27
2021/09/07 03:01:25;;;;;;;;;;;;;;;24.98;38.91;101714.66;4961145;29;801;-29
2021/09/07 03:03:50;;;;;;;;;;;;;;;25.55;37.76;101719.16;4961417;29;765;-27
2021/09/07 03:06:16;;;;;;;;;;;;;;;25.24;36.35;101721.25;4960807;29;832;-27
2021/09/07 03:08:41;;;;;;;;;;;;;;;23.31;42.51;101721.38;4960758;29;845;-27
2021/09/07 03:11:07;;;;;;;;;;;;;;;24.45;40.39;101712.28;4960789;29;809;-27
2021/09/07 03:13:32;;;;;;;;;;;;;;;24.93;39.08;101714.22;4959292;29;1969;-28
2021/09/07 03:15:57;;;;;;;;;;;;;;;25.60;37.37;101716.00;4960209;29;761;-29
2021/09/07 03:18:22;;;;;;;;;;;;;;;25.41;36.16;101714.22;4959468;29;1174;-29
2021/09/07 03:20:48;;;;;;;;;;;;;;;23.39;42.46;101716.19;4959035;29;1482;-29
2021/09/07 03:23:13;;;;;;;;;;;;;;;23.68;43.00;101711.94;4960761;29;808;-28
2021/09/07 03:25:38;;;;;;;;;;;;;;;25.01;38.71;101710.81;4961345;29;745;-28
2021/09/07 03:28:04;;;;;;;;;;;;;;;25.31;38.40;101709.72;4959818;29;796;-27
2021/09/07 03:30:29;;;;;;;;;;;;;;;25.33;37.55;101714.13;4960619;29;1067;-27
2021/09/07 03:32:54;;;;;;;;;;;;;;;23.50;42.00;101709.91;4961111;29;1918;-28
2021/09/07 03:35:20;;;;;;;;;;;;;;;23.73;43.49;101710.56;4960328;29;872;-29
2021/09/07 03:37:45;;;;;;;;;;;;;;;24.97;39.13;101720.19;4960634;29;836;-27
2021/09/07 03:40:11;;;;;;;;;;;;;;;25.33;38.72;101714.13;4960705;29;812;-29
2021/09/07 03:42:36;;;;;;;;;;;;;;;25.67;37.14;101719.81;4960450;29;772;-27
2021/09/07 03:45:02;;;;;;;;;;;;;;;23.94;41.28;101723.06;4960583;29;946;-26
2021/09/07 03:47:28;;;;;;;;;;;;;;;23.23;44.90;101724.72;4958982;29;800;-28
2021/09/07 03:49:53;;;;;;;;;;;;;;;24.80;39.54;101730.66;4959093;29;801;-29
2021/09/07 03:52:18;;;;;;;;;;;;;;;25.18;38.57;101728.06;4960009;29;1981;-27
2021/09/07 03:54:44;;;;;;;;;;;;;;;25.17;36.59;101723.69;4960363;29;797;-28
2021/09/07 03:57:09;;;;;;;;;;;;;;;25.06;34.65;101728.22;4960430;29;749;-27
2021/09/07 03:59:34;;;;;;;;;;;;;;;25.09;36.54;101726.25;4959501;29;954;-25
2021/09/07 04:01:59;;;;;;;;;;;;;;;23.54;39.47;101722.06;4959130;29;1082;-29
2021/09/07 04:04:25;;;;;;;;;;;;;;;23.00;42.62;101723.03;4959941;28;789;-27
2021/09/07 04:06:51;;;;;;;;;;;;;;;24.48;36.68;101726.41;4959397;29;879;-28
2021/09/07 04:09:16;;;;;;;;;;;;;;;24.81;37.54;101732.34;4959849;29;749;-27
2021/09/07 04:11:41;;;;;;;;;;;;;;;25.63;35.35;101729.19;4960154;29;1915;-29
2021/09/07 04:14:07;;;;;;;;;;;;;;;24.64;36.74;101732.06;4959634;29;1005;-26
2021/09/07 04:16:32;;;;;;;;;;;;;;;24.34;39.28;101732.06;4960228;29;860;-27
2021/09/07 04:18:57;;;;;;;;;;;;;;;25.18;37.74;101736.13;4959548;29;968;-26
2021/09/07 04:21:22;;;;;;;;;;;;;;;25.59;36.22;101725.06;4959684;29;1580;-29
2021/09/07 04:23:48;;;;;;;;;;;;;;;25.56;36.45;101728.91;4959536;29;524;-26
2021/09/07 04:26:13;;;;;;;;;;;;;;;23.81;39.59;101720.63;4960054;29;821;-25
2021/09/07 04:28:38;;;;;;;;;;;;;;;24.65;38.92;101733.78;4959006;29;981;-26
2021/09/07 04:31:04;;;;;;;;;;;;;;;24.98;38.54;101733.50;4942039;29;1369;-30
2021/09/07 04:33:29;;;;;;;;;;;;;;;25.13;36.15;101730.34;4959365;29;1966;-26
2021/09/07 04:35:54;;;;;;;;;;;;;;;24.89;35.73;101737.84;4959504;28;830;-27
2021/09/07 04:38:19;;;;;;;;;;;;;;;23.78;40.90;101728.97;4959728;29;849;-26
2021/09/07 04:40:45;;;;;;;;;;;;;;;24.97;37.41;101734.50;4959576;29;832;-28
2021/09/07 04:43:10;;;;;;;;;;;;;;;25.37;36.58;101731.69;4958802;29;1533;-28
2021/09/07 04:45:35;;;;;;;;;;;;;;;25.63;36.43;101739.13;4958920;29;973;-27
2021/09/07 04:48:01;;;;;;;;;;;;;;;24.13;38.58;101736.66;4959440;28;842;-26
2021/09/07 04:50:26;;;;;;;;;;;;;;;23.92;40.47;101741.16;4959017;28;862;-26
2021/09/07 04:52:51;;;;;;;;;;;;;;;25.21;36.81;101743.91;4959197;29;1969;-27
2021/09/07 04:55:16;;;;;;;;;;;;;;;24.56;33.20;101748.94;4959298;29;793;-27
2021/09/07 04:57:42;;;;;;;;;;;;;;;24.45;33.67;101741.84;4958642;29;866;-27
2021/09/07 05:00:08;;;;;;;;;;;;;;;22.53;39.47;101749.31;4958617;29;970;-24
2021/09/07 05:02:34;;;;;;;;;;;;;;;22.75;34.55;101746.56;4959014;29;813;-25
2021/09/07 05:05:03;;;;;;;;;;;;;;;23.08;33.59;101748.38;4958630;29;801;-25
2021/09/07 05:07:29;;;;;;;;;;;;;;;23.54;33.31;101750.78;4958473;29;1399;-27
2021/09/07 05:09:55;;;;;;;;;;;;;;;23.24;36.30;101750.56;4958799;29;848;-25
2021/09/07 05:12:20;;;;;;;;;;;;;;;22.36;39.50;101754.25;4958312;29;1957;-24
2021/09/07 05:14:45;;;;;;;;;;;;;;;22.97;33.94;101755.50;4958828;29;1028;-29
2021/09/07 05:17:11;;;;;;;;;;;;;;;22.92;35.18;101751.50;4957725;28;1064;-28
2021/09/07 05:19:36;;;;;;;;;;;;;;;23.22;33.37;101753.38;4958142;29;824;-25
2021/09/07 05:22:02;;;;;;;;;;;;;;;23.13;34.06;101751.50;4958406;28;1665;-25
2021/09/07 05:24:27;;;;;;;;;;;;;;;22.59;36.15;101762.22;4958824;29;790;-25
2021/09/07 05:26:52;;;;;;;;;;;;;;;22.65;34.51;101756.38;4958373;29;740;-25
2021/09/07 05:29:18;;;;;;;;;;;;;;;23.17;34.35;101762.84;4958092;29;1009;-24
2021/09/07 05:31:43;;;;;;;;;;;;;;;23.13;33.50;101756.88;4958316;29;1972;-24
2021/09/07 05:34:08;;;;;;;;;;;;;;;22.38;38.69;101771.06;4957787;29;844;-25
2021/09/07 05:36:34;;;;;;;;;;;;;;;22.80;38.34;101764.97;4958763;29;785;-27
2021/09/07 05:38:59;;;;;;;;;;;;;;;22.95;34.62;101764.66;4958761;29;769;-28
2021/09/07 05:41:24;;;;;;;;;;;;;;;23.22;33.67;101772.19;4958104;29;837;-29
2021/09/07 05:43:52;;;;;;;;;;;;;;;23.53;35.32;101767.88;4957694;29;957;-25
2021/09/07 05:46:18;;;;;;;;;;;;;;;22.21;39.02;101775.97;4950420;28;1107;-25
2021/09/07 05:48:45;;;;;;;;;;;;;;;22.75;37.35;101770.72;4956978;29;1017;-24
2021/09/07 05:51:10;;;;;;;;;;;;;;;23.30;34.12;101768.00;4957331;29;820;-25
2021/09/07 05:53:37;;;;;;;;;;;;;;;22.56;37.92;101762.47;4957670;29;1903;-25
2021/09/07 05:56:02;;;;;;;;;;;;;;;23.05;37.79;101767.41;4957319;29;823;-29
2021/09/07 05:58:27;;;;;;;;;;;;;;;23.46;34.07;101762.19;4957378;29;1009;-27
2021/09/07 06:00:53;;;;;;;;;;;;;;;22.96;37.98;101763.66;4957007;29;831;-25
2021/09/07 06:03:18;;;;;;;;;;;;;;;21.93;41.29;101771.97;4957183;29;872;-24
2021/09/07 06:05:43;;;;;;;;;;;;;;;23.33;36.69;101760.53;4957463;29;820;-29
2021/09/07 06:08:09;;;;;;;;;;;;;;;23.70;37.64;101761.88;4957246;29;816;-25
2021/09/07 06:10:34;;;;;;;;;;;;;;;22.20;41.37;101778.78;4957241;29;776;-26
2021/09/07 06:13:00;;;;;;;;;;;;;;;22.48;41.71;101768.47;4940002;29;1964;-29
2021/09/07 06:15:25;;;;;;;;;;;;;;;23.77;37.19;101772.09;4956552;28;942;-24
2021/09/07 06:17:51;;;;;;;;;;;;;;;23.15;38.88;101773.72;4956718;29;1050;-24
2021/09/07 06:20:16;;;;;;;;;;;;;;;21.94;42.27;101777.22;4956738;29;804;-24
2021/09/07 06:22:41;;;;;;;;;;;;;;;23.16;38.81;101775.41;4956761;29;1593;-29
2021/09/07 06:25:07;;;;;;;;;;;;;;;23.17;38.91;101778.94;4957419;29;804;-24
2021/09/07 06:27:32;;;;;;;;;;;;;;;21.88;42.78;101777.72;4956743;28;792;-29
2021/09/07 06:29:58;;;;;;;;;;;;;;;23.54;37.70;101780.31;4956703;28;973;-29
2021/09/07 06:32:23;;;;;;;;;;;;;;;24.21;37.46;101785.25;4956578;29;1915;-28
2021/09/07 06:34:48;;;;;;;;;;;;;;;22.24;41.95;101788.25;4956830;29;848;-28
2021/09/07 06:37:14;;;;;;;;;;;;;;;21.52;43.82;101784.00;4957027;29;828;-28
2021/09/07 06:39:39;;;;;;;;;;;;;;;22.97;41.11;101778.81;4956885;29;778;-28
2021/09/07 06:42:05;;;;;;;;;;;;;;;24.21;38.63;101779.88;4956286;29;769;-28
2021/09/07 06:44:30;;;;;;;;;;;;;;;22.49;41.74;101783.56;4956548;29;954;-29
2021/09/07 06:46:56;;;;;;;;;;;;;;;21.61;43.63;101782.44;4957131;29;773;-28
2021/09/07 06:49:21;;;;;;;;;;;;;;;22.86;41.92;101785.06;4956807;29;785;-28
2021/09/07 06:51:46;;;;;;;;;;;;;;;24.31;38.17;101790.66;4956969;28;1918;-27
2021/09/07 06:54:12;;;;;;;;;;;;;;;22.34;42.01;101807.13;4956706;29;821;-24
2021/09/07 06:56:37;;;;;;;;;;;;;;;21.59;44.24;101799.56;4956993;29;832;-28
2021/09/07 06:59:02;;;;;;;;;;;;;;;22.57;42.82;101799.06;4956384;28;977;-30
2021/09/07 07:01:30;;;;;;;;;;;;;;;24.21;38.75;101790.63;4956758;29;860;-30
2021/09/07 07:03:55;;;;;;;;;;;;;;;21.87;43.62;101798.28;4956488;29;800;-30
2021/09/07 07:06:21;;;;;;;;;;;;;;;21.48;44.93;101795.94;4957008;29;836;-30
2021/09/07 07:08:46;;;;;;;;;;;;;;;21.24;45.67;101796.84;4956595;28;872;-26
2021/09/07 07:11:12;;;;;;;;;;;;;;;21.81;45.64;101806.81;4956406;29;772;-30
2021/09/07 07:13:37;;;;;;;;;;;;;;;23.88;40.10;101803.38;4956109;29;1967;-26
2021/09/07 07:16:02;;;;;;;;;;;;;;;22.22;43.43;101796.44;4956954;28;781;-25
2021/09/07 07:18:27;;;;;;;;;;;;;;;23.38;40.82;101802.22;4955588;29;1103;-25
2021/09/07 07:20:53;;;;;;;;;;;;;;;23.46;39.98;101805.13;4956792;29;1684;-29
2021/09/07 07:23:18;;;;;;;;;;;;;;;21.70;44.81;101807.63;4956455;29;852;-25
2021/09/07 07:25:43;;;;;;;;;;;;;;;21.61;46.14;101800.31;4956327;29;1134;-30
2021/09/07 07:28:09;;;;;;;;;;;;;;;23.85;40.58;101812.56;4956544;29;824;-30
2021/09/07 07:30:34;;;;;;;;;;;;;;;23.04;41.51;101814.84;4956408;29;966;-28
2021/09/07 07:33:02;;;;;;;;;;;;;;;21.72;44.79;101813.72;4955854;29;1966;-30
2021/09/07 07:35:28;;;;;;;;;;;;;;;21.53;45.49;101811.63;4956243;29;762;-26
2021/09/07 07:37:53;;;;;;;;;;;;;;;21.41;46.19;101814.28;4956327;29;786;-30
2021/09/07 07:40:18;;;;;;;;;;;;;;;23.50;41.70;101817.34;4957766;28;773;-25
2021/09/07 07:42:44;;;;;;;;;;;;;;;22.83;42.23;101826.44;4959923;29;765;-27
2021/09/07 07:45:12;;;;;;;;;;;;;;;21.73;45.63;101822.59;4959726;29;962;-28
2021/09/07 07:47:37;;;;;;;;;;;;;;;21.30;47.20;101819.63;4959505;29;766;-27
2021/09/07 07:50:03;;;;;;;;;;;;;;;22.54;45.71;101835.00;4959913;29;860;-30
2021/09/07 07:52:28;;;;;;;;;;;;;;;23.93;42.52;101826.16;4959736;29;1930;-25
2021/09/07 07:54:54;;;;;;;;;;;;;;;22.27;45.38;101831.75;4959354;29;773;-28
2021/09/07 07:57:19;;;;;;;;;;;;;;;21.51;47.30;101829.63;4959732;29;884;-29
2021/09/07 07:59:44;;;;;;;;;;;;;;;21.30;47.78;101833.00;4959472;29;957;-25
2021/09/07 08:02:10;;;;;;;;;;;;;;;21.19;48.23;101835.63;4959228;29;789;-30
2021/09/07 08:04:35;;;;;;;;;;;;;;;21.22;48.77;101836.22;4959498;29;825;-25
2021/09/07 08:07:00;;;;;;;;;;;;;;;23.44;43.41;101837.50;4959192;29;835;-25
2021/09/07 08:09:26;;;;;;;;;;;;;;;24.20;42.03;101837.34;4959248;29;780;-27
2021/09/07 08:11:51;;;;;;;;;;;;;;;22.28;44.81;101840.66;4959763;29;1956;-29
2021/09/07 08:14:16;;;;;;;;;;;;;;;21.45;47.28;101830.97;4959189;29;1012;-28
2021/09/07 08:16:42;;;;;;;;;;;;;;;21.68;49.04;101841.72;4958730;28;1239;-25
2021/09/07 08:19:07;;;;;;;;;;;;;;;23.73;43.06;101833.28;4959421;29;861;-25
2021/09/07 08:21:32;;;;;;;;;;;;;;;22.21;45.31;101828.72;4959236;28;1608;-29
2021/09/07 08:23:58;;;;;;;;;;;;;;;21.47;47.52;101841.56;4958793;29;773;-28
2021/09/07 08:26:23;;;;;;;;;;;;;;;21.16;48.32;101836.72;4959486;29;745;-31
2021/09/07 08:28:48;;;;;;;;;;;;;;;23.50;43.04;101843.31;4958945;29;922;-30
2021/09/07 08:31:14;;;;;;;;;;;;;;;24.23;41.35;101842.44;4959014;29;895;-29
2021/09/07 08:33:39;;;;;;;;;;;;;;;24.69;40.32;101834.72;4958765;28;1915;-30
2021/09/07 08:36:04;;;;;;;;;;;;;;;25.01;39.25;101831.94;4958441;28;852;-30
2021/09/07 08:38:30;;;;;;;;;;;;;;;25.28;37.65;101835.75;4959431;29;804;-29
2021/09/07 08:40:56;;;;;;;;;;;;;;;25.42;38.05;101829.91;4958477;29;837;-30
2021/09/07 08:43:22;;;;;;;;;;;;;;;25.72;37.12;101827.19;4958661;29;962;-29
2021/09/07 08:45:51;;;;;;;;;;;;;;;25.89;36.09;101827.41;4941252;29;849;-29
2021/09/07 08:48:16;;;;;;;;;;;;;;;26.09;36.80;101828.13;4958126;28;865;-29
2021/09/07 08:50:42;;;;;;;;;;;;;;;26.14;37.18;101833.94;4958435;28;757;-29
2021/09/07 08:53:08;;;;;;;;;;;;;;;26.36;36.82;101829.16;4958075;29;1902;-30
2021/09/07 08:55:33;;;;;;;;;;;;;;;26.49;36.51;101834.19;4958517;29;855;-29
2021/09/07 08:57:58;;;;;;;;;;;;;;;26.54;37.11;101831.06;4958129;29;809;-29
2021/09/07 09:00:28;;;;;;;;;;;;;;;26.63;36.63;101829.25;4958723;29;946;-30
2021/09/07 09:02:53;;;;;;;;;;;;;;;26.94;36.51;101825.34;4958040;29;784;-27
2021/09/07 09:05:25;;;;;;;;;;;;;;;26.95;36.64;101824.31;4958560;29;792;-30
2021/09/07 09:07:50;;;;;;;;;;;;;;;26.45;34.05;101808.50;4958422;29;785;-27
2021/09/07 09:10:19;;;;;;;;;;;;;;;26.70;36.91;101830.34;4958279;29;905;-29
2021/09/07 09:12:44;;;;;;;;;;;;;;;27.16;37.04;101823.19;4958403;29;1906;-30
2021/09/07 09:15:09;;;;;;;;;;;;;;;27.24;36.62;101829.47;4957864;29;1008;-27
2021/09/07 09:17:35;;;;;;;;;;;;;;;27.06;35.34;101821.41;4957619;29;1188;-26
2021/09/07 09:20:00;;;;;;;;;;;;;;;26.09;32.99;101817.34;4958387;29;820;-29
2021/09/07 09:22:44;;;;;;;;;;;;;;;26.27;33.16;101822.81;4957467;29;1581;-29
2021/09/07 09:27:47;;;;;;;;;;;;;;;26.25;35.01;101829.34;4957689;29;738;-30
2021/09/07 09:30:12;;;;;;;;;;;;;;;26.98;35.20;101824.84;4958204;29;946;-27
2021/09/07 09:32:47;;;;;;;;;;;;;;;26.43;34.16;101817.75;4957743;29;1977;-30
2021/09/07 09:35:12;;;;;;;;;;;;;;;27.12;34.48;101825.34;4957888;29;876;-30
2021/09/07 09:37:57;;;;;;;;;;;;;;;26.90;34.76;101824.78;4957636;29;753;-30
2021/09/07 09:40:23;;;;;;;;;;;;;;;26.67;34.33;101819.00;4955513;29;765;-30
2021/09/07 09:42:48;;;;;;;;;;;;;;;27.22;35.73;101825.25;4958215;29;785;-30
2021/09/07 09:45:13;;;;;;;;;;;;;;;26.98;35.43;101827.56;4957047;29;950;-29
2021/09/07 09:47:40;;;;;;;;;;;;;;;27.18;33.54;101827.41;4936525;29;1170;-30
2021/09/07 09:50:06;;;;;;;;;;;;;;;26.69;35.92;101833.22;4939026;29;785;-29
2021/09/07 09:52:35;;;;;;;;;;;;;;;27.06;35.92;101825.97;4938441;29;1965;-29
2021/09/07 09:55:00;;;;;;;;;;;;;;;26.75;34.73;101824.47;4938379;29;800;-29
2021/09/07 09:57:25;;;;;;;;;;;;;;;27.32;34.70;101828.69;4938731;29;879;-30
2021/09/07 09:59:51;;;;;;;;;;;;;;;27.72;36.88;101826.44;4936519;29;958;-30
2021/09/07 10:02:16;;;;;;;;;;;;;;;27.81;36.48;101816.50;4936634;29;821;-29
2021/09/07 10:04:41;;;;;;;;;;;;;;;27.84;36.51;101818.88;4937376;29;800;-30
2021/09/07 10:07:06;;;;;;;;;;;;;;;27.72;36.88;101809.38;4938155;29;867;-29
2021/09/07 10:09:32;;;;;;;;;;;;;;;27.27;35.72;101817.53;4937616;29;888;-28
2021/09/07 10:12:19;;;;;;;;;;;;;;;27.91;37.17;101827.19;4937242;29;1906;-30
2021/09/07 10:14:51;;;;;;;;;;;;;;;27.43;34.17;101815.91;4939155;29;868;-28
2021/09/07 10:17:22;;;;;;;;;;;;;;;27.84;36.40;101820.75;4957130;29;1203;-26
2021/09/07 10:19:57;;;;;;;;;;;;;;;27.91;35.76;101818.25;4956715;29;801;-27
2021/09/07 10:26:04;;;;;;;;;;;;;;;28.30;35.15;101820.41;4957019;29;666;-25
2021/09/07 10:28:29;;;;;;;;;;;;;;;28.31;36.28;101827.50;4914794;29;1285;-25
2021/09/07 10:30:56;;;;;;;;;;;;;;;27.66;33.68;101829.72;4897476;29;782;-25
2021/09/07 10:33:31;;;;;;;;;;;;;;;27.95;35.52;101828.56;4925420;29;1965;-30
2021/09/07 10:36:03;;;;;;;;;;;;;;;27.90;33.01;101833.59;4939759;29;812;-25
2021/09/07 10:38:55;;;;;;;;;;;;;;;27.85;33.31;101825.13;4956553;29;496;-25
2021/09/07 10:41:33;;;;;;;;;;;;;;;27.68;33.53;101821.47;4954663;29;1651;-30
2021/09/07 10:44:02;;;;;;;;;;;;;;;27.61;33.11;101832.09;4956444;29;994;-25
2021/09/07 10:46:47;;;;;;;;;;;;;;;27.65;32.78;101822.66;4956754;29;765;-30
2021/09/07 10:49:23;;;;;;;;;;;;;;;27.60;32.56;101823.13;4956497;28;836;-26
2021/09/07 10:52:11;;;;;;;;;;;;;;;28.36;36.83;101817.06;4956841;29;793;-26
2021/09/07 10:54:39;;;;;;;;;;;;;;;27.86;32.36;101814.16;4957124;28;834;-28
2021/09/07 10:57:05;;;;;;;;;;;;;;;28.35;36.68;101815.38;4956429;29;781;-26
2021/09/07 10:59:53;;;;;;;;;;;;;;;27.70;32.26;101817.63;4956411;29;966;-27
2021/09/07 11:02:34;;;;;;;;;;;;;;;28.28;36.94;101818.88;4956660;29;857;-28
2021/09/07 11:05:01;;;;;;;;;;;;;;;28.55;35.42;101814.22;4956733;29;743;-30
2021/09/07 11:07:32;;;;;;;;;;;;;;;29.03;36.80;101802.78;4956615;28;777;-30
2021/09/07 11:09:58;;;;;;;;;;;;;;;28.76;33.28;101815.59;4956759;29;872;-25
2021/09/07 11:12:27;;;;;;;;;;;;;;;27.97;33.06;101809.47;4956257;29;1969;-29
2021/09/07 11:15:10;;;;;;;;;;;;;;;28.45;36.66;101804.41;4957367;28;1104;-29
2021/09/07 11:17:54;;;;;;;;;;;;;;;29.03;35.74;101806.31;4960234;29;1289;-28
2021/09/07 11:20:20;;;;;;;;;;;;;;;29.22;36.34;101809.69;4961127;29;753;-29
2021/09/07 11:22:46;;;;;;;;;;;;;;;29.20;36.27;101817.97;4959713;28;1553;-26
2021/09/07 11:25:18;;;;;;;;;;;;;;;29.10;36.94;101801.06;4960061;29;820;-26
2021/09/07 11:27:47;;;;;;;;;;;;;;;29.11;37.03;101797.34;4960262;29;778;-28
2021/09/07 11:30:22;;;;;;;;;;;;;;;29.02;37.56;101804.63;4959945;29;966;-30
2021/09/07 11:32:47;;;;;;;;;;;;;;;29.23;36.91;101789.69;4959765;29;1989;-27
2021/09/07 11:35:13;;;;;;;;;;;;;;;29.25;37.25;101795.78;4960376;29;785;-27
2021/09/07 11:37:38;;;;;;;;;;;;;;;29.24;37.37;101795.94;4942326;29;1280;-29
2021/09/07 11:40:10;;;;;;;;;;;;;;;29.37;37.07;101793.56;4960288;29;840;-29
2021/09/07 11:42:45;;;;;;;;;;;;;;;29.34;36.90;101802.03;4959635;29;564;-29
2021/09/07 11:45:17;;;;;;;;;;;;;;;29.43;36.83;101798.28;4959329;29;1002;-30
2021/09/07 11:47:43;;;;;;;;;;;;;;;29.32;36.41;101798.66;4959679;29;773;-28
2021/09/07 11:50:09;;;;;;;;;;;;;;;29.39;36.57;101809.66;4959211;28;934;-29
2021/09/07 11:52:34;;;;;;;;;;;;;;;29.40;36.52;101793.22;4959365;29;1910;-28
2021/09/07 11:54:59;;;;;;;;;;;;;;;29.44;36.98;101791.84;4960140;29;809;-28
2021/09/07 11:57:24;;;;;;;;;;;;;;;29.30;36.88;101789.84;4959893;29;828;-28
2021/09/07 11:59:59;;;;;;;;;;;;;;;29.40;37.25;101792.34;4958996;29;957;-29
2021/09/07 12:02:27;;;;;;;;;;;;;;;29.41;37.06;101794.06;4959267;29;745;-29
2021/09/07 12:04:58;;;;;;;;;;;;;;;29.44;36.98;101796.41;4960044;29;872;-31
2021/09/07 12:07:23;;;;;;;;;;;;;;;29.39;36.43;101791.53;4959361;28;801;-30
2021/09/07 12:09:49;;;;;;;;;;;;;;;29.50;37.02;101792.16;4959714;29;860;-29
2021/09/07 12:12:14;;;;;;;;;;;;;;;29.50;36.67;101794.88;4959224;29;1911;-29
2021/09/07 12:14:40;;;;;;;;;;;;;;;29.48;36.52;101788.78;4958411;29;954;-26
2021/09/07 12:17:12;;;;;;;;;;;;;;;29.39;36.76;101782.53;4959056;28;1216;-29
2021/09/07 12:19:38;;;;;;;;;;;;;;;29.15;37.63;101790.53;4959403;29;812;-29
2021/09/07 12:22:03;;;;;;;;;;;;;;;27.59;37.52;101785.44;4958787;29;1652;-31
2021/09/07 12:24:32;;;;;;;;;;;;;;;24.99;38.14;101770.16;4959185;29;831;-30
2021/09/07 12:26:57;;;;;;;;;;;;;;;24.11;40.57;101779.00;4958914;28;873;-30
2021/09/07 12:29:22;;;;;;;;;;;;;;;24.27;43.28;101783.84;4941059;29;1211;-30
2021/09/07 12:31:50;;;;;;;;;;;;;;;24.33;44.37;101778.78;4959460;29;798;-30
2021/09/07 12:34:21;;;;;;;;;;;;;;;24.37;44.75;101775.81;4959038;29;1979;-30
2021/09/07 12:36:50;;;;;;;;;;;;;;;24.31;45.33;101770.00;4958328;28;840;-30
2021/09/07 12:39:16;;;;;;;;;;;;;;;24.27;47.30;101783.84;4959278;29;761;-30
2021/09/07 12:41:43;;;;;;;;;;;;;;;26.27;42.23;101787.75;4958719;29;776;-29
2021/09/07 12:44:09;;;;;;;;;;;;;;;25.06;43.93;101771.31;4958141;29;1001;-27
2021/09/07 12:46:35;;;;;;;;;;;;;;;24.28;45.23;101775.66;4941362;29;864;-27
2021/09/07 12:49:00;;;;;;;;;;;;;;;23.94;46.12;101779.47;4958469;29;698;-26
2021/09/07 12:51:25;;;;;;;;;;;;;;;23.80;46.66;101788.78;4958776;29;868;-27
2021/09/07 12:53:58;;;;;;;;;;;;;;;23.72;46.78;101778.69;4958254;29;1973;-29
2021/09/07 12:56:27;;;;;;;;;;;;;;;23.48;47.65;101789.75;4958867;29;801;-27
2021/09/07 12:58:53;;;;;;;;;;;;;;;23.67;49.81;101785.47;4958647;29;1153;-28